createdAt,value
2018-11-04T00:02:24.055Z,8.40
2018-11-04T00:04:51.579Z,8.50
2018-11-04T00:07:19.091Z,7.67
2018-11-04T00:09:46.636Z,8.10
2018-11-04T00:12:14.115Z,6.93
2018-11-04T00:14:41.639Z,7.27
2018-11-04T00:17:09.135Z,8.37
2018-11-04T00:19:36.671Z,8.28
2018-11-04T00:22:04.355Z,8.03
2018-11-04T00:24:31.926Z,7.40
2018-11-04T00:26:59.406Z,7.70
2018-11-04T00:29:26.923Z,7.53
2018-11-04T00:31:54.444Z,6.60
2018-11-04T00:34:21.964Z,7.10
2018-11-04T00:36:49.529Z,9.47
2018-11-04T00:39:17.031Z,8.23
2018-11-04T00:41:44.723Z,8.27
2018-11-04T00:44:12.224Z,7.70
2018-11-04T00:46:39.751Z,8.93
2018-11-04T00:49:07.410Z,7.78
2018-11-04T00:51:34.943Z,7.07
2018-11-04T00:54:03.152Z,7.53
2018-11-04T00:56:30.638Z,8.40
2018-11-04T00:58:58.257Z,8.17
2018-11-04T01:01:25.823Z,9.40
2018-11-04T01:03:53.576Z,7.20
2018-11-04T01:06:21.078Z,8.70
2018-11-04T01:08:49.683Z,7.80
2018-11-04T01:11:17.130Z,8.80
2018-11-04T01:13:44.674Z,8.30
2018-11-04T01:16:12.175Z,7.70
2018-11-04T01:18:39.862Z,8.07
2018-11-04T01:21:07.401Z,8.10
2018-11-04T01:23:34.898Z,8.48
2018-11-04T01:26:02.659Z,8.93
2018-11-04T01:28:30.155Z,9.00
2018-11-04T01:30:57.826Z,7.70
2018-11-04T01:33:25.331Z,11.65
2018-11-04T01:35:53.014Z,9.85
2018-11-04T01:38:20.525Z,10.33
2018-11-04T01:40:48.062Z,9.73
2018-11-04T01:43:15.563Z,11.50
2018-11-04T01:45:43.154Z,12.60
2018-11-04T01:48:10.634Z,12.53
2018-11-04T01:50:38.143Z,11.57
2018-11-04T01:53:05.649Z,13.23
2018-11-04T01:55:33.153Z,9.77
2018-11-04T01:58:00.654Z,10.78
2018-11-04T02:00:28.210Z,11.33
2018-11-04T02:02:55.718Z,11.60
2018-11-04T02:05:23.234Z,10.98
2018-11-04T02:07:50.721Z,9.48
2018-11-04T02:10:18.254Z,7.43
2018-11-04T02:12:45.730Z,8.73
2018-11-04T02:15:13.433Z,8.30
2018-11-04T02:17:40.978Z,10.90
2018-11-04T02:20:09.492Z,8.40
2018-11-04T02:22:37.123Z,9.03
2018-11-04T02:25:05.237Z,7.83
2018-11-04T02:27:32.722Z,8.98
2018-11-04T02:30:00.272Z,8.37
2018-11-04T02:32:27.806Z,11.80
2018-11-04T02:34:55.340Z,12.10
2018-11-04T02:37:23.868Z,8.33
2018-11-04T02:39:51.625Z,8.30
2018-11-04T02:42:19.146Z,8.80
2018-11-04T02:44:46.730Z,10.40
2018-11-04T02:47:14.223Z,11.97
2018-11-04T02:49:41.749Z,9.07
2018-11-04T02:52:09.258Z,9.90
2018-11-04T02:54:36.767Z,10.20
2018-11-04T02:57:04.306Z,12.37
2018-11-04T02:59:31.851Z,11.90
2018-11-04T03:01:59.420Z,12.15
2018-11-04T03:04:27.382Z,12.03
2018-11-04T03:06:54.906Z,12.37
2018-11-04T03:09:22.451Z,12.93
2018-11-04T03:11:49.954Z,12.93
2018-11-04T03:14:17.459Z,12.95
2018-11-04T03:16:44.982Z,13.27
2018-11-04T03:19:12.534Z,14.35
2018-11-04T03:21:40.040Z,14.80
2018-11-04T03:24:07.547Z,14.53
2018-11-04T03:26:35.050Z,13.40
2018-11-04T03:29:02.551Z,13.68
2018-11-04T03:31:30.102Z,14.47
2018-11-04T03:33:57.657Z,14.67
2018-11-04T03:36:25.190Z,14.97
2018-11-04T03:38:52.678Z,13.67
2018-11-04T03:41:20.190Z,11.97
2018-11-04T03:43:48.155Z,15.20
2018-11-04T03:46:15.658Z,11.03
2018-11-04T03:48:43.153Z,9.70
2018-11-04T03:51:10.678Z,11.50
2018-11-04T03:53:38.182Z,10.30
2018-11-04T03:56:05.682Z,10.87
2018-11-04T03:58:33.173Z,6.80
2018-11-04T04:01:01.490Z,11.40
2018-11-04T04:03:28.990Z,9.27
2018-11-04T04:05:56.502Z,8.70
2018-11-04T04:08:24.082Z,11.40
2018-11-04T04:10:51.615Z,13.00
2018-11-04T04:13:19.135Z,12.27
2018-11-04T04:15:46.640Z,11.87
2018-11-04T04:18:14.160Z,12.47
2018-11-04T04:20:43.045Z,12.53
2018-11-04T04:23:10.543Z,13.97
2018-11-04T04:25:38.046Z,12.97
2018-11-04T04:28:05.554Z,12.63
2018-11-04T04:30:33.050Z,12.80
2018-11-04T04:33:00.551Z,14.68
2018-11-04T04:35:28.694Z,13.97
2018-11-04T04:37:56.195Z,15.50
2018-11-04T04:40:23.735Z,14.13
2018-11-04T04:42:51.334Z,13.95
2018-11-04T04:45:18.854Z,14.55
2018-11-04T04:47:46.355Z,14.80
2018-11-04T04:50:13.864Z,16.00
2018-11-04T04:52:41.358Z,16.77
2018-11-04T04:55:08.948Z,16.40
2018-11-04T04:57:36.458Z,14.73
2018-11-04T05:00:04.154Z,16.30
2018-11-04T05:02:31.731Z,16.60
2018-11-04T05:04:59.228Z,15.43
2018-11-04T05:07:26.790Z,17.83
2018-11-04T05:09:54.322Z,17.40
2018-11-04T05:12:21.854Z,18.47
2018-11-04T05:14:49.355Z,17.15
2018-11-04T05:17:17.730Z,15.70
2018-11-04T05:19:45.243Z,19.10
2018-11-04T05:22:12.746Z,17.97
2018-11-04T05:24:40.230Z,18.17
2018-11-04T05:27:07.753Z,19.50
2018-11-04T05:29:35.319Z,18.23
2018-11-04T05:32:02.784Z,19.77
2018-11-04T05:34:30.265Z,21.47
2018-11-04T05:36:57.781Z,20.10
2018-11-04T05:39:25.290Z,20.17
2018-11-04T05:41:52.862Z,18.67
2018-11-04T05:44:20.351Z,18.40
2018-11-04T05:46:47.862Z,20.30
2018-11-04T05:49:15.359Z,21.80
2018-11-04T05:51:42.855Z,20.27
2018-11-04T05:54:10.384Z,19.67
2018-11-04T05:56:37.870Z,20.10
2018-11-04T05:59:05.384Z,20.50
2018-11-04T06:01:32.909Z,21.73
2018-11-04T06:04:00.396Z,20.37
2018-11-04T06:06:28.178Z,20.20
2018-11-04T06:08:55.741Z,20.30
2018-11-04T06:11:23.267Z,19.25
2018-11-04T06:13:50.771Z,22.20
2018-11-04T06:16:18.263Z,20.27
2018-11-04T06:18:45.776Z,21.35
2018-11-04T06:21:13.258Z,20.23
2018-11-04T06:23:40.750Z,21.20
2018-11-04T06:26:08.270Z,19.83
2018-11-04T06:28:35.830Z,23.20
2018-11-04T06:31:03.327Z,22.40
2018-11-04T06:33:30.862Z,20.72
2018-11-04T06:35:58.381Z,24.02
2018-11-04T06:38:26.031Z,21.10
2018-11-04T06:40:53.580Z,22.10
2018-11-04T06:43:21.061Z,19.97
2018-11-04T06:45:48.586Z,21.80
2018-11-04T06:48:16.094Z,20.23
2018-11-04T06:50:43.674Z,22.40
2018-11-04T06:53:11.170Z,22.37
2018-11-04T06:55:38.674Z,23.70
2018-11-04T06:58:06.290Z,20.30
2018-11-04T07:00:33.834Z,24.40
2018-11-04T07:03:01.370Z,19.73
2018-11-04T07:05:28.854Z,23.10
2018-11-04T07:07:56.398Z,21.00
2018-11-04T07:10:23.967Z,19.70
2018-11-04T07:12:51.478Z,23.60
2018-11-04T07:15:18.997Z,21.65
2018-11-04T07:17:46.502Z,22.40
2018-11-04T07:20:14.623Z,22.57
2018-11-04T07:22:42.175Z,26.13
2018-11-04T07:25:09.683Z,24.30
2018-11-04T07:27:37.188Z,21.50
2018-11-04T07:30:05.918Z,22.50
2018-11-04T07:32:33.407Z,21.97
2018-11-04T07:35:01.401Z,23.07
2018-11-04T07:37:28.914Z,21.77
2018-11-04T07:39:56.434Z,20.37
2018-11-04T07:42:23.931Z,21.00
2018-11-04T07:44:51.446Z,21.60
2018-11-04T07:47:18.938Z,22.67
2018-11-04T07:49:46.476Z,23.23
2018-11-04T07:52:13.976Z,24.07
2018-11-04T07:54:41.489Z,23.20
2018-11-04T07:57:08.987Z,23.12
2018-11-04T07:59:36.505Z,22.70
2018-11-04T08:02:04.034Z,23.70
2018-11-04T08:04:31.545Z,25.37
2018-11-04T08:06:59.038Z,25.90
2018-11-04T08:09:26.586Z,26.73
2018-11-04T08:11:54.115Z,25.65
2018-11-04T08:14:21.678Z,26.57
2018-11-04T08:16:49.282Z,24.67
2018-11-04T08:19:16.790Z,28.75
2018-11-04T08:21:44.318Z,24.90
2018-11-04T08:24:11.839Z,27.43
2018-11-04T08:26:39.349Z,29.33
2018-11-04T08:29:06.882Z,27.10
2018-11-04T08:31:34.406Z,29.63
2018-11-04T08:34:02.810Z,26.60
2018-11-04T08:36:30.455Z,29.23
2018-11-04T08:38:58.053Z,27.07
2018-11-04T08:41:25.578Z,28.20
2018-11-04T08:43:53.187Z,30.60
2018-11-04T08:46:20.687Z,25.30
2018-11-04T08:48:48.255Z,24.20
2018-11-04T08:51:15.772Z,30.20
2018-11-04T08:53:43.262Z,27.07
2018-11-04T08:56:10.782Z,30.10
2018-11-04T08:58:38.335Z,28.50
2018-11-04T09:01:05.847Z,29.97
2018-11-04T09:03:33.370Z,27.10
2018-11-04T09:06:02.154Z,28.25
2018-11-04T09:08:29.662Z,28.67
2018-11-04T09:10:57.256Z,28.63
2018-11-04T09:13:24.816Z,28.87
2018-11-04T09:15:52.342Z,30.77
2018-11-04T09:18:19.832Z,27.90
2018-11-04T09:20:47.346Z,32.53
2018-11-04T09:23:14.892Z,30.68
2018-11-04T09:25:42.418Z,29.00
2018-11-04T09:28:09.923Z,29.10
2018-11-04T09:30:37.707Z,32.63
2018-11-04T09:33:05.246Z,28.40
2018-11-04T09:35:32.872Z,28.32
2018-11-04T09:38:00.306Z,31.83
2018-11-04T09:40:28.767Z,31.40
2018-11-04T09:42:56.274Z,28.60
2018-11-04T09:45:23.857Z,26.52
2018-11-04T09:47:51.346Z,26.80
2018-11-04T09:50:18.886Z,28.85
2018-11-04T09:52:46.398Z,28.65
2018-11-04T09:55:13.954Z,27.40
2018-11-04T09:57:41.666Z,25.33
2018-11-04T10:00:10.102Z,27.90
2018-11-04T10:02:37.727Z,29.12
2018-11-04T10:05:05.550Z,27.33
2018-11-04T10:07:33.067Z,26.60
2018-11-04T10:10:00.575Z,29.12
2018-11-04T10:12:28.118Z,27.17
2018-11-04T10:14:55.646Z,27.83
2018-11-04T10:17:23.148Z,26.53
2018-11-04T10:19:51.099Z,26.97
2018-11-04T10:22:18.174Z,26.10
2018-11-04T10:24:45.670Z,27.00
2018-11-04T10:27:13.258Z,25.60
2018-11-04T10:29:41.096Z,25.43
2018-11-04T10:32:08.598Z,24.37
2018-11-04T10:34:36.098Z,26.40
2018-11-04T10:37:03.677Z,24.50
2018-11-04T10:39:31.208Z,24.90
2018-11-04T10:41:58.745Z,25.30
2018-11-04T10:44:26.266Z,24.40
2018-11-04T10:46:53.788Z,23.37
2018-11-04T10:49:21.388Z,23.60
2018-11-04T10:51:48.855Z,21.27
2018-11-04T10:54:16.367Z,22.30
2018-11-04T10:56:43.882Z,20.77
2018-11-04T10:59:11.453Z,21.17
2018-11-04T11:01:38.963Z,21.87
2018-11-04T11:04:06.463Z,20.73
2018-11-04T11:06:34.051Z,20.00
2018-11-04T11:09:02.119Z,18.65
2018-11-04T11:11:29.725Z,23.63
2018-11-04T11:13:57.228Z,21.48
2018-11-04T11:16:24.779Z,17.50
2018-11-04T11:18:52.303Z,17.20
2018-11-04T11:21:19.824Z,19.60
2018-11-04T11:23:47.311Z,17.60
2018-11-04T11:26:14.851Z,15.60
2018-11-04T11:28:42.354Z,19.07
2018-11-04T11:31:09.954Z,15.38
2018-11-04T11:33:37.451Z,14.40
2018-11-04T11:36:05.309Z,13.60
2018-11-04T11:38:32.795Z,15.07
2018-11-04T11:41:00.315Z,13.83
2018-11-04T11:43:28.250Z,14.20
2018-11-04T11:45:55.806Z,13.07
2018-11-04T11:48:23.354Z,15.90
2018-11-04T11:50:50.890Z,14.80
2018-11-04T11:53:18.394Z,16.00
2018-11-04T11:55:45.958Z,15.03
2018-11-04T11:58:13.850Z,16.33
2018-11-04T12:00:41.687Z,15.23
2018-11-04T12:03:09.183Z,14.83
2018-11-04T12:05:36.707Z,15.77
2018-11-04T12:08:04.240Z,13.47
2018-11-04T12:10:31.813Z,16.50
2018-11-04T12:12:59.368Z,13.20
2018-11-04T12:15:26.882Z,14.67
2018-11-04T12:17:54.536Z,12.90
2018-11-04T12:20:22.063Z,12.30
2018-11-04T12:22:49.571Z,12.47
2018-11-04T12:25:17.206Z,14.97
2018-11-04T12:27:44.684Z,12.97
2018-11-04T12:30:13.668Z,12.20
2018-11-04T12:32:41.223Z,13.90
2018-11-04T12:35:09.961Z,12.00
2018-11-04T12:37:37.555Z,10.93
2018-11-04T12:40:05.951Z,11.77
2018-11-04T12:42:33.532Z,10.10
2018-11-04T12:45:02.183Z,12.33
2018-11-04T12:47:29.715Z,12.20
2018-11-04T12:49:57.231Z,13.40
2018-11-04T12:52:24.959Z,11.65
2018-11-04T12:54:52.293Z,12.27
2018-11-04T12:57:19.827Z,12.93
2018-11-04T12:59:47.348Z,11.90
2018-11-04T13:02:14.935Z,12.20
2018-11-04T13:04:42.454Z,13.38
2018-11-04T13:07:10.107Z,13.20
2018-11-04T13:09:37.631Z,13.00
2018-11-04T13:12:05.162Z,12.87
2018-11-04T13:14:32.684Z,12.73
2018-11-04T13:17:00.235Z,10.83
2018-11-04T13:19:28.532Z,11.77
2018-11-04T13:21:56.075Z,11.93
2018-11-04T13:24:23.587Z,12.98
2018-11-04T13:26:51.149Z,12.40
2018-11-04T13:29:18.661Z,12.63
2018-11-04T13:31:46.440Z,10.47
2018-11-04T13:34:13.960Z,12.73
2018-11-04T13:36:41.460Z,16.50
2018-11-04T13:39:09.833Z,11.90
2018-11-04T13:41:37.334Z,11.50
2018-11-04T13:44:05.493Z,12.53
2018-11-04T13:46:32.976Z,11.67
2018-11-04T13:49:00.487Z,11.00
2018-11-04T13:51:28.039Z,10.78
2018-11-04T13:53:55.595Z,11.73
2018-11-04T13:56:26.166Z,11.70
2018-11-04T13:58:59.310Z,11.33
2018-11-04T14:01:27.062Z,11.30
2018-11-04T14:03:54.582Z,10.30
2018-11-04T14:06:22.180Z,11.53
2018-11-04T14:08:49.686Z,12.20
2018-11-04T14:11:17.945Z,11.20
2018-11-04T14:13:45.465Z,9.77
2018-11-04T14:16:12.951Z,13.60
2018-11-04T14:18:40.490Z,11.40
2018-11-04T14:21:08.015Z,10.90
2018-11-04T14:23:35.577Z,10.13
2018-11-04T14:26:03.079Z,10.40
2018-11-04T14:28:30.626Z,11.50
2018-11-04T14:30:58.282Z,10.50
2018-11-04T14:38:17.656Z,10.30
2018-11-04T14:40:45.241Z,10.53
2018-11-04T14:43:12.754Z,12.80
2018-11-04T14:45:40.262Z,12.77
2018-11-04T14:48:07.775Z,10.50
2018-11-04T14:50:35.319Z,11.17
2018-11-04T14:53:02.916Z,10.90
2018-11-04T14:55:30.392Z,11.47
2018-11-04T14:57:57.943Z,13.15
2018-11-04T15:00:25.557Z,11.80
2018-11-04T15:02:53.980Z,12.70
2018-11-04T15:05:21.705Z,11.63
2018-11-04T15:07:49.218Z,11.70
2018-11-04T15:10:16.734Z,10.97
2018-11-04T15:12:44.410Z,9.85
2018-11-04T15:15:13.431Z,12.60
2018-11-04T15:17:41.203Z,14.07
2018-11-04T15:20:09.055Z,13.90
2018-11-04T15:22:39.859Z,14.93
2018-11-04T15:25:07.371Z,12.82
2018-11-04T15:27:34.984Z,14.07
2018-11-04T15:30:03.394Z,11.57
2018-11-04T15:32:30.914Z,13.70
2018-11-04T15:34:58.458Z,12.97
2018-11-04T15:37:26.002Z,10.50
2018-11-04T15:39:53.526Z,12.43
2018-11-04T15:42:21.018Z,16.40
2018-11-04T15:44:48.542Z,10.63
2018-11-04T15:47:16.067Z,14.13
2018-11-04T15:49:43.932Z,15.57
2018-11-04T15:52:11.426Z,14.70
2018-11-04T15:54:38.942Z,12.47
2018-11-04T15:57:11.931Z,19.20
2018-11-04T15:59:39.430Z,18.47
2018-11-04T16:02:07.618Z,13.47
2018-11-04T16:04:44.544Z,16.48
2018-11-04T16:07:02.818Z,15.90
2018-11-04T16:09:30.366Z,19.30
2018-11-04T16:11:57.870Z,21.20
2018-11-04T16:14:25.411Z,23.33
2018-11-04T16:16:52.911Z,19.33
2018-11-04T16:19:20.423Z,20.80
2018-11-04T16:21:47.953Z,20.43
2018-11-04T16:24:15.481Z,19.27
2018-11-04T16:26:43.581Z,20.20
2018-11-04T16:29:11.135Z,17.47
2018-11-04T16:31:38.632Z,18.37
2018-11-04T16:34:06.127Z,19.30
2018-11-04T16:36:33.627Z,18.20
2018-11-04T16:39:01.514Z,19.10
2018-11-04T16:41:29.026Z,18.60
2018-11-04T16:43:57.031Z,19.93
2018-11-04T16:46:24.664Z,19.60
2018-11-04T16:48:52.135Z,19.12
2018-11-04T16:51:19.662Z,16.50
2018-11-04T16:53:47.186Z,19.73
2018-11-04T16:56:15.012Z,18.70
2018-11-04T16:58:42.462Z,27.80
2018-11-04T17:01:09.986Z,20.67
2018-11-04T17:03:37.486Z,22.87
2018-11-04T17:06:05.003Z,22.47
2018-11-04T17:08:32.611Z,18.90
2018-11-04T17:11:00.167Z,19.87
2018-11-04T17:13:30.555Z,21.40
2018-11-04T17:15:58.080Z,20.10
2018-11-04T17:18:25.646Z,19.37
2018-11-04T17:20:53.197Z,20.23
2018-11-04T17:23:20.698Z,16.83
2018-11-04T17:25:48.366Z,18.23
2018-11-04T17:28:15.952Z,20.08
2018-11-04T17:30:43.502Z,20.97
2018-11-04T17:33:11.039Z,21.00
2018-11-04T17:35:38.546Z,21.80
2018-11-04T17:38:06.085Z,20.13
2018-11-04T17:40:33.627Z,21.90
2018-11-04T17:43:01.431Z,19.00
2018-11-04T17:45:29.006Z,18.97
2018-11-04T17:47:56.513Z,22.20
2018-11-04T17:50:24.047Z,24.00
2018-11-04T17:52:51.542Z,18.07
2018-11-04T17:55:19.062Z,18.35
2018-11-04T17:57:46.652Z,20.87
2018-11-04T18:00:15.330Z,21.20
2018-11-04T18:02:43.213Z,19.50
2018-11-04T18:05:11.461Z,20.50
2018-11-04T18:07:39.084Z,20.33
2018-11-04T18:10:06.701Z,20.07
2018-11-04T18:12:34.195Z,19.70
2018-11-04T18:15:03.071Z,20.87
2018-11-04T18:17:30.859Z,22.00
2018-11-04T18:19:58.504Z,19.27
2018-11-04T18:22:26.038Z,20.85
2018-11-04T18:24:53.628Z,19.73
2018-11-04T18:27:21.190Z,18.67
2018-11-04T18:29:48.687Z,18.97
2018-11-04T18:32:16.304Z,19.48
2018-11-04T18:34:43.759Z,17.20
2018-11-04T18:37:11.315Z,18.00
2018-11-04T18:39:38.844Z,17.67
2018-11-04T18:42:06.482Z,19.80
2018-11-04T18:44:34.177Z,20.57
2018-11-04T18:47:03.096Z,18.97
2018-11-04T18:49:30.699Z,19.43
2018-11-04T18:51:58.354Z,18.90
2018-11-04T18:54:25.986Z,19.13
2018-11-04T18:56:53.576Z,26.27
2018-11-04T18:59:21.281Z,20.60
2018-11-04T19:01:48.679Z,20.60
2018-11-04T19:04:16.198Z,19.80
2018-11-04T19:06:43.779Z,19.10
2018-11-04T19:09:11.569Z,19.50
2018-11-04T19:11:39.249Z,17.17
2018-11-04T19:14:06.786Z,18.50
2018-11-04T19:16:34.419Z,22.37
2018-11-04T19:19:02.245Z,18.13
2018-11-04T19:21:30.169Z,20.40
2018-11-04T19:23:57.712Z,19.23
2018-11-04T19:26:25.250Z,19.90
2018-11-04T19:28:52.821Z,19.20
2018-11-04T19:31:20.438Z,18.47
2018-11-04T19:33:48.166Z,18.07
2018-11-04T19:36:15.704Z,19.17
2018-11-04T19:38:43.402Z,20.20
2018-11-04T19:41:10.915Z,19.77
2018-11-04T19:43:38.694Z,19.87
2018-11-04T19:46:06.242Z,18.37
2018-11-04T19:48:33.791Z,17.00
2018-11-04T19:51:01.399Z,17.80
2018-11-04T19:53:28.850Z,16.67
2018-11-04T19:55:56.355Z,15.55
2018-11-04T19:58:23.908Z,16.87
2018-11-04T20:00:51.418Z,16.70
2018-11-04T20:03:18.990Z,16.70
2018-11-04T20:05:46.589Z,17.70
2018-11-04T20:08:14.169Z,18.00
2018-11-04T20:10:41.676Z,18.37
2018-11-04T20:13:14.547Z,17.97
2018-11-04T20:15:42.049Z,16.23
2018-11-04T20:18:15.314Z,16.10
2018-11-04T20:20:42.822Z,18.20
2018-11-04T20:23:10.326Z,16.87
2018-11-04T20:25:43.527Z,17.07
2018-11-04T20:28:10.990Z,14.60
2018-11-04T20:30:38.482Z,16.93
2018-11-04T20:33:07.799Z,18.53
2018-11-04T20:35:35.298Z,14.93
2018-11-04T20:38:02.814Z,14.80
2018-11-04T20:40:35.847Z,17.53
2018-11-04T20:43:03.357Z,15.60
2018-11-04T20:45:30.958Z,17.40
2018-11-04T20:48:04.054Z,15.68
2018-11-04T20:50:37.110Z,16.37
2018-11-04T20:53:04.674Z,16.77
2018-11-04T20:55:37.786Z,16.15
2018-11-04T20:58:05.465Z,14.10
2018-11-04T21:00:32.774Z,17.03
2018-11-04T21:03:00.302Z,16.00
2018-11-04T21:05:28.151Z,17.03
2018-11-04T21:07:55.694Z,15.93
2018-11-04T21:10:23.229Z,16.10
2018-11-04T21:12:50.850Z,14.93
2018-11-04T21:15:18.987Z,16.57
2018-11-04T21:17:46.627Z,14.77
2018-11-04T21:20:14.131Z,15.23
2018-11-04T21:22:41.655Z,17.53
2018-11-04T21:25:09.170Z,19.40
2018-11-04T21:27:36.702Z,16.70
2018-11-04T21:30:05.285Z,15.90
2018-11-04T21:32:32.919Z,15.67
2018-11-04T21:35:00.324Z,15.23
2018-11-04T21:37:28.317Z,17.67
2018-11-04T21:39:55.814Z,16.13
2018-11-04T21:42:23.928Z,15.97
2018-11-04T21:44:51.641Z,14.97
2018-11-04T21:47:19.098Z,14.70
2018-11-04T21:49:46.607Z,14.90
2018-11-04T21:52:14.107Z,15.60
2018-11-04T21:54:41.618Z,15.13
2018-11-04T21:57:09.110Z,14.98
2018-11-04T21:59:36.650Z,14.75
2018-11-04T22:02:04.474Z,14.70
2018-11-04T22:04:32.064Z,13.70
2018-11-04T22:06:59.530Z,15.70
2018-11-04T22:09:27.069Z,13.93
2018-11-04T22:11:54.610Z,13.77
2018-11-04T22:14:22.109Z,14.50
2018-11-04T22:16:49.615Z,13.73
2018-11-04T22:19:17.154Z,14.40
2018-11-04T22:21:44.858Z,13.65
2018-11-04T22:24:12.350Z,14.13
2018-11-04T22:26:39.866Z,13.85
2018-11-04T22:29:07.380Z,14.27
2018-11-04T22:31:34.883Z,14.07
2018-11-04T22:34:02.912Z,14.50
2018-11-04T22:36:30.442Z,13.33
2018-11-04T22:38:57.938Z,13.53
2018-11-04T22:41:25.459Z,13.10
2018-11-04T22:43:53.438Z,14.40
2018-11-04T22:46:20.918Z,14.17
2018-11-04T22:48:48.446Z,12.93
2018-11-04T22:51:15.939Z,14.50
2018-11-04T22:53:43.454Z,14.70
2018-11-04T22:56:11.046Z,14.50
2018-11-04T22:58:38.466Z,13.28
2018-11-04T23:01:05.975Z,14.40
2018-11-04T23:03:33.518Z,12.97
2018-11-04T23:06:04.542Z,12.93
2018-11-04T23:08:32.048Z,13.10
2018-11-04T23:10:59.550Z,15.98
2018-11-04T23:13:27.317Z,13.13
2018-11-04T23:15:54.829Z,13.23
2018-11-04T23:18:22.408Z,13.07
2018-11-04T23:20:49.846Z,13.03
2018-11-04T23:23:17.357Z,13.60
2018-11-04T23:25:44.876Z,12.07
2018-11-04T23:28:12.362Z,12.40
2018-11-04T23:30:39.870Z,14.60
2018-11-04T23:33:07.376Z,13.30
2018-11-04T23:35:34.914Z,12.83
2018-11-04T23:38:02.831Z,13.30
2018-11-04T23:40:31.534Z,12.27
2018-11-04T23:42:59.054Z,12.67
2018-11-04T23:45:26.589Z,16.00
2018-11-04T23:47:54.080Z,13.80
2018-11-04T23:50:21.974Z,13.10
2018-11-04T23:52:49.862Z,13.65
2018-11-04T23:55:17.386Z,12.27
2018-11-04T23:57:44.891Z,14.13
